sensor_id;sensor_type;location;lat;lon;timestamp;pressure;altitude;pressure_sealevel;temperature;humidity
11676;BME280;5894;42.768;23.404;2023-04-01T00:01:07;94774.56;;;9.31;100.00
11676;BME280;5894;42.768;23.404;2023-04-01T00:03:34;94764.66;;;9.28;100.00
11676;BME280;5894;42.768;23.404;2023-04-01T00:06:01;94782.59;;;9.43;100.00
11676;BME280;5894;42.768;23.404;2023-04-01T00:08:29;94775.63;;;9.39;100.00
11676;BME280;5894;42.768;23.404;2023-04-01T00:10:57;94777.47;;;9.38;100.00
11676;BME280;5894;42.768;23.404;2023-04-01T00:13:25;94744.88;;;9.22;100.00
11676;BME280;5894;42.768;23.404;2023-04-01T00:15:52;94784.25;;;9.56;100.00
11676;BME280;5894;42.768;23.404;2023-04-01T00:18:19;94773.09;;;9.68;100.00
11676;BME280;5894;42.768;23.404;2023-04-01T00:20:48;94769.97;;;9.75;100.00
11676;BME280;5894;42.768;23.404;2023-04-01T00:23:15;94761.91;;;9.80;100.00
11676;BME280;5894;42.768;23.404;2023-04-01T00:25:44;94763.25;;;9.94;100.00
11676;BME280;5894;42.768;23.404;2023-04-01T00:28:13;94697.69;;;9.64;100.00
11676;BME280;5894;42.768;23.404;2023-04-01T00:30:40;94736.31;;;9.89;100.00
11676;BME280;5894;42.768;23.404;2023-04-01T00:33:07;94754.31;;;10.16;100.00
11676;BME280;5894;42.768;23.404;2023-04-01T00:35:34;94761.28;;;10.21;100.00
11676;BME280;5894;42.768;23.404;2023-04-01T00:38:01;94763.44;;;10.27;100.00
11676;BME280;5894;42.768;23.404;2023-04-01T00:40:30;94750.91;;;10.24;100.00
11676;BME280;5894;42.768;23.404;2023-04-01T00:42:59;94746.41;;;10.25;100.00
11676;BME280;5894;42.768;23.404;2023-04-01T00:45:30;94739.69;;;10.36;100.00
11676;BME280;5894;42.768;23.404;2023-04-01T00:48:00;94746.22;;;10.30;100.00
11676;BME280;5894;42.768;23.404;2023-04-01T00:50:29;94723.72;;;10.33;100.00
11676;BME280;5894;42.768;23.404;2023-04-01T00:52:58;94722.25;;;10.44;100.00
11676;BME280;5894;42.768;23.404;2023-04-01T00:55:26;94719.41;;;10.28;100.00
11676;BME280;5894;42.768;23.404;2023-04-01T00:57:55;94707.78;;;10.29;100.00
11676;BME280;5894;42.768;23.404;2023-04-01T01:00:25;94728.78;;;10.08;100.00
11676;BME280;5894;42.768;23.404;2023-04-01T01:02:52;94723.44;;;9.96;100.00
11676;BME280;5894;42.768;23.404;2023-04-01T01:05:26;94695.25;;;9.88;100.00
11676;BME280;5894;42.768;23.404;2023-04-01T01:08:01;94703.94;;;9.88;100.00
11676;BME280;5894;42.768;23.404;2023-04-01T01:10:33;94706.75;;;9.83;100.00
11676;BME280;5894;42.768;23.404;2023-04-01T01:13:07;94707.34;;;9.89;100.00
11676;BME280;5894;42.768;23.404;2023-04-01T01:15:42;94704.59;;;9.85;100.00
11676;BME280;5894;42.768;23.404;2023-04-01T01:18:19;94702.53;;;9.91;100.00
11676;BME280;5894;42.768;23.404;2023-04-01T01:21:23;94700.16;;;9.98;100.00
11676;BME280;5894;42.768;23.404;2023-04-01T01:26:57;94706.03;;;9.74;100.00
11676;BME280;5894;42.768;23.404;2023-04-01T01:29:53;94703.25;;;9.71;100.00
11676;BME280;5894;42.768;23.404;2023-04-01T01:32:54;94702.69;;;9.48;100.00
11676;BME280;5894;42.768;23.404;2023-04-01T01:35:30;94702.31;;;9.20;100.00
11676;BME280;5894;42.768;23.404;2023-04-01T01:38:00;94692.28;;;9.13;100.00
11676;BME280;5894;42.768;23.404;2023-04-01T01:40:31;94638.03;;;8.66;100.00
11676;BME280;5894;42.768;23.404;2023-04-01T01:43:04;94679.31;;;8.91;100.00
11676;BME280;5894;42.768;23.404;2023-04-01T01:45:33;94682.53;;;9.05;100.00
11676;BME280;5894;42.768;23.404;2023-04-01T01:48:02;94664.47;;;8.87;100.00
11676;BME280;5894;42.768;23.404;2023-04-01T01:50:32;94660.91;;;8.82;100.00
11676;BME280;5894;42.768;23.404;2023-04-01T01:53:03;94667.84;;;8.96;100.00
11676;BME280;5894;42.768;23.404;2023-04-01T01:55:32;94666.28;;;9.12;100.00
11676;BME280;5894;42.768;23.404;2023-04-01T01:58:01;94674.16;;;9.03;100.00
11676;BME280;5894;42.768;23.404;2023-04-01T02:00:30;94678.03;;;9.06;100.00
11676;BME280;5894;42.768;23.404;2023-04-01T02:02:59;94668.72;;;9.17;100.00
11676;BME280;5894;42.768;23.404;2023-04-01T02:05:28;94670.13;;;9.23;100.00
11676;BME280;5894;42.768;23.404;2023-04-01T02:08:08;94670.16;;;9.06;100.00
11676;BME280;5894;42.768;23.404;2023-04-01T02:10:39;94672.63;;;8.94;100.00
11676;BME280;5894;42.768;23.404;2023-04-01T02:13:13;94620.44;;;8.49;100.00
11676;BME280;5894;42.768;23.404;2023-04-01T02:15:47;94654.28;;;8.59;100.00
11676;BME280;5894;42.768;23.404;2023-04-01T02:18:18;94654.44;;;8.37;100.00
11676;BME280;5894;42.768;23.404;2023-04-01T02:20:46;94653.66;;;8.45;100.00
11676;BME280;5894;42.768;23.404;2023-04-01T02:23:14;94650.72;;;8.46;100.00
11676;BME280;5894;42.768;23.404;2023-04-01T02:25:42;94654.28;;;8.51;100.00
11676;BME280;5894;42.768;23.404;2023-04-01T02:28:10;94655.84;;;8.60;100.00
11676;BME280;5894;42.768;23.404;2023-04-01T02:30:43;94652.56;;;8.63;100.00
11676;BME280;5894;42.768;23.404;2023-04-01T02:33:11;94657.69;;;8.60;100.00
11676;BME280;5894;42.768;23.404;2023-04-01T02:35:39;94635.09;;;8.41;100.00
11676;BME280;5894;42.768;23.404;2023-04-01T02:38:06;94647.47;;;8.58;100.00
11676;BME280;5894;42.768;23.404;2023-04-01T02:40:48;94656.13;;;8.67;100.00
11676;BME280;5894;42.768;23.404;2023-04-01T02:43:15;94654.56;;;8.83;100.00
11676;BME280;5894;42.768;23.404;2023-04-01T02:45:43;94655.19;;;8.89;100.00
11676;BME280;5894;42.768;23.404;2023-04-01T02:48:09;94646.84;;;8.70;100.00
11676;BME280;5894;42.768;23.404;2023-04-01T02:50:38;94668.50;;;8.93;100.00
11676;BME280;5894;42.768;23.404;2023-04-01T02:53:05;94667.22;;;8.99;100.00
11676;BME280;5894;42.768;23.404;2023-04-01T02:55:32;94666.63;;;9.02;100.00
11676;BME280;5894;42.768;23.404;2023-04-01T02:58:01;94665.53;;;9.03;100.00
11676;BME280;5894;42.768;23.404;2023-04-01T03:00:29;94680.34;;;9.16;100.00
11676;BME280;5894;42.768;23.404;2023-04-01T03:02:56;94674.16;;;9.12;100.00
11676;BME280;5894;42.768;23.404;2023-04-01T03:05:23;94664.13;;;8.97;100.00
11676;BME280;5894;42.768;23.404;2023-04-01T03:07:50;94678.97;;;9.10;100.00
11676;BME280;5894;42.768;23.404;2023-04-01T03:10:17;94674.75;;;9.17;100.00
11676;BME280;5894;42.768;23.404;2023-04-01T03:12:44;94648.38;;;8.88;100.00
11676;BME280;5894;42.768;23.404;2023-04-01T03:15:13;94684.19;;;9.18;100.00
11676;BME280;5894;42.768;23.404;2023-04-01T03:17:41;94671.97;;;9.23;100.00
11676;BME280;5894;42.768;23.404;2023-04-01T03:20:12;94667.03;;;9.21;100.00
11676;BME280;5894;42.768;23.404;2023-04-01T03:22:39;94623.31;;;8.91;100.00
11676;BME280;5894;42.768;23.404;2023-04-01T03:25:07;94683.72;;;9.16;100.00
11676;BME280;5894;42.768;23.404;2023-04-01T03:27:34;94680.31;;;9.25;100.00
11676;BME280;5894;42.768;23.404;2023-04-01T03:30:01;94674.13;;;9.29;100.00
11676;BME280;5894;42.768;23.404;2023-04-01T03:32:30;94673.31;;;9.37;100.00
11676;BME280;5894;42.768;23.404;2023-04-01T03:34:57;94675.47;;;9.35;100.00
11676;BME280;5894;42.768;23.404;2023-04-01T03:37:24;94671.16;;;9.39;100.00
11676;BME280;5894;42.768;23.404;2023-04-01T03:39:51;94666.69;;;9.31;100.00
11676;BME280;5894;42.768;23.404;2023-04-01T03:42:18;94670.09;;;9.32;100.00
11676;BME280;5894;42.768;23.404;2023-04-01T03:44:45;94671.16;;;9.39;100.00
11676;BME280;5894;42.768;23.404;2023-04-01T03:47:12;94672.84;;;9.44;100.00
11676;BME280;5894;42.768;23.404;2023-04-01T03:49:40;94653.81;;;9.38;100.00
11676;BME280;5894;42.768;23.404;2023-04-01T03:52:09;94648.97;;;9.49;100.00
11676;BME280;5894;42.768;23.404;2023-04-01T03:54:37;94628.88;;;9.44;100.00
11676;BME280;5894;42.768;23.404;2023-04-01T03:57:04;94587.19;;;9.17;100.00
11676;BME280;5894;42.768;23.404;2023-04-01T03:59:32;94628.69;;;9.49;100.00
11676;BME280;5894;42.768;23.404;2023-04-01T04:01:59;94612.91;;;9.49;100.00
11676;BME280;5894;42.768;23.404;2023-04-01T04:04:27;94612.94;;;9.41;100.00
11676;BME280;5894;42.768;23.404;2023-04-01T04:06:55;94600.28;;;9.34;100.00
11676;BME280;5894;42.768;23.404;2023-04-01T04:09:23;94584.84;;;9.24;100.00
11676;BME280;5894;42.768;23.404;2023-04-01T04:11:50;94570.75;;;9.29;100.00
11676;BME280;5894;42.768;23.404;2023-04-01T04:14:17;94559.31;;;9.25;100.00
11676;BME280;5894;42.768;23.404;2023-04-01T04:16:45;94560.84;;;9.26;100.00
11676;BME280;5894;42.768;23.404;2023-04-01T04:19:12;94541.06;;;9.19;100.00
11676;BME280;5894;42.768;23.404;2023-04-01T04:21:40;94552.22;;;9.16;100.00
11676;BME280;5894;42.768;23.404;2023-04-01T04:24:09;94543.44;;;9.04;100.00
11676;BME280;5894;42.768;23.404;2023-04-01T04:26:56;94518.56;;;9.01;100.00
11676;BME280;5894;42.768;23.404;2023-04-01T04:29:23;94535.31;;;8.88;100.00
11676;BME280;5894;42.768;23.404;2023-04-01T04:31:50;94526.94;;;8.95;100.00
11676;BME280;5894;42.768;23.404;2023-04-01T04:34:18;94514.44;;;8.92;100.00
11676;BME280;5894;42.768;23.404;2023-04-01T04:36:45;94508.72;;;8.90;100.00
11676;BME280;5894;42.768;23.404;2023-04-01T04:39:13;94504.34;;;8.94;100.00
11676;BME280;5894;42.768;23.404;2023-04-01T04:41:42;94496.31;;;8.99;100.00
11676;BME280;5894;42.768;23.404;2023-04-01T04:44:09;94485.66;;;8.95;100.00
11676;BME280;5894;42.768;23.404;2023-04-01T04:46:36;94488.06;;;9.09;100.00
11676;BME280;5894;42.768;23.404;2023-04-01T04:49:13;94485.75;;;9.07;100.00
11676;BME280;5894;42.768;23.404;2023-04-01T04:51:40;94451.34;;;8.92;100.00
11676;BME280;5894;42.768;23.404;2023-04-01T04:54:08;94511.53;;;9.23;100.00
11676;BME280;5894;42.768;23.404;2023-04-01T04:56:59;94501.44;;;9.25;100.00
11676;BME280;5894;42.768;23.404;2023-04-01T04:59:30;94506.31;;;9.35;100.00
11676;BME280;5894;42.768;23.404;2023-04-01T05:02:03;94504.44;;;9.44;100.00
11676;BME280;5894;42.768;23.404;2023-04-01T05:04:34;94476.56;;;9.22;100.00
11676;BME280;5894;42.768;23.404;2023-04-01T05:07:02;94492.78;;;9.45;100.00
11676;BME280;5894;42.768;23.404;2023-04-01T05:09:30;94490.69;;;9.59;100.00
11676;BME280;5894;42.768;23.404;2023-04-01T05:11:59;94445.25;;;9.29;100.00
11676;BME280;5894;42.768;23.404;2023-04-01T05:14:33;94474.91;;;9.59;100.00
11676;BME280;5894;42.768;23.404;2023-04-01T05:17:09;94434.78;;;9.41;100.00
11676;BME280;5894;42.768;23.404;2023-04-01T05:19:36;94475.53;;;9.56;100.00
11676;BME280;5894;42.768;23.404;2023-04-01T05:22:03;94464.63;;;9.45;100.00
11676;BME280;5894;42.768;23.404;2023-04-01T05:24:31;94475.75;;;9.51;100.00
11676;BME280;5894;42.768;23.404;2023-04-01T05:27:00;94476.19;;;9.53;100.00
11676;BME280;5894;42.768;23.404;2023-04-01T05:29:27;94460.59;;;9.48;100.00
11676;BME280;5894;42.768;23.404;2023-04-01T05:32:02;94469.66;;;9.59;100.00
11676;BME280;5894;42.768;23.404;2023-04-01T05:34:29;94484.03;;;9.62;100.00
11676;BME280;5894;42.768;23.404;2023-04-01T05:36:56;94479.94;;;9.73;100.00
11676;BME280;5894;42.768;23.404;2023-04-01T05:39:23;94485.69;;;9.87;100.00
11676;BME280;5894;42.768;23.404;2023-04-01T05:41:49;94485.38;;;9.88;100.00
11676;BME280;5894;42.768;23.404;2023-04-01T05:44:18;94481.31;;;9.91;100.00
11676;BME280;5894;42.768;23.404;2023-04-01T05:46:47;94475.41;;;9.94;100.00
11676;BME280;5894;42.768;23.404;2023-04-01T05:49:19;94476.97;;;9.95;100.00
11676;BME280;5894;42.768;23.404;2023-04-01T05:51:47;94385.75;;;9.37;100.00
11676;BME280;5894;42.768;23.404;2023-04-01T05:54:14;94477.91;;;10.11;100.00
11676;BME280;5894;42.768;23.404;2023-04-01T05:56:43;94471.28;;;10.26;100.00
11676;BME280;5894;42.768;23.404;2023-04-01T05:59:10;94465.28;;;10.38;100.00
11676;BME280;5894;42.768;23.404;2023-04-01T06:01:39;94457.16;;;10.43;100.00
11676;BME280;5894;42.768;23.404;2023-04-01T06:04:06;94457.81;;;10.40;100.00
11676;BME280;5894;42.768;23.404;2023-04-01T06:06:33;94465.41;;;10.53;100.00
11676;BME280;5894;42.768;23.404;2023-04-01T06:09:13;94455.34;;;10.68;100.00
11676;BME280;5894;42.768;23.404;2023-04-01T06:11:55;94465.22;;;10.71;100.00
11676;BME280;5894;42.768;23.404;2023-04-01T06:14:32;94467.06;;;10.70;100.00
11676;BME280;5894;42.768;23.404;2023-04-01T06:17:16;94458.63;;;10.64;100.00
11676;BME280;5894;42.768;23.404;2023-04-01T06:19:51;94457.09;;;10.76;100.00
11676;BME280;5894;42.768;23.404;2023-04-01T06:22:55;94460.72;;;10.83;100.00
11676;BME280;5894;42.768;23.404;2023-04-01T06:25:35;94450.31;;;10.87;100.00
11676;BME280;5894;42.768;23.404;2023-04-01T06:31:05;94454.91;;;11.14;100.00
11676;BME280;5894;42.768;23.404;2023-04-01T06:33:55;94440.59;;;11.27;100.00
11676;BME280;5894;42.768;23.404;2023-04-01T06:36:51;94420.78;;;11.33;100.00
11676;BME280;5894;42.768;23.404;2023-04-01T06:39:32;94436.69;;;11.61;100.00
11676;BME280;5894;42.768;23.404;2023-04-01T06:42:17;94434.91;;;11.77;100.00
11676;BME280;5894;42.768;23.404;2023-04-01T06:44:56;94425.41;;;11.89;100.00
11676;BME280;5894;42.768;23.404;2023-04-01T06:48:04;94440.72;;;12.11;100.00
11676;BME280;5894;42.768;23.404;2023-04-01T06:51:24;94429.75;;;12.25;100.00
11676;BME280;5894;42.768;23.404;2023-04-01T06:54:14;94423.63;;;12.36;100.00
11676;BME280;5894;42.768;23.404;2023-04-01T06:57:05;94417.25;;;12.53;100.00
11676;BME280;5894;42.768;23.404;2023-04-01T06:59:37;94410.78;;;12.66;100.00
11676;BME280;5894;42.768;23.404;2023-04-01T07:02:16;94404.34;;;12.83;100.00
11676;BME280;5894;42.768;23.404;2023-04-01T07:04:48;94409.91;;;12.94;100.00
11676;BME280;5894;42.768;23.404;2023-04-01T07:07:24;94408.94;;;13.02;100.00
11676;BME280;5894;42.768;23.404;2023-04-01T07:09:59;94359.03;;;12.84;98.50
11676;BME280;5894;42.768;23.404;2023-04-01T07:12:36;94401.84;;;13.21;98.62
11676;BME280;5894;42.768;23.404;2023-04-01T07:15:26;94369.66;;;13.19;98.94
11676;BME280;5894;42.768;23.404;2023-04-01T07:17:57;94398.06;;;13.57;94.20
11676;BME280;5894;42.768;23.404;2023-04-01T07:20:32;94396.47;;;13.72;87.65
11676;BME280;5894;42.768;23.404;2023-04-01T07:23:06;94403.03;;;13.78;86.66
11676;BME280;5894;42.768;23.404;2023-04-01T07:25:52;94405.53;;;13.90;87.06
11676;BME280;5894;42.768;23.404;2023-04-01T07:28:40;94380.06;;;13.86;82.87
11676;BME280;5894;42.768;23.404;2023-04-01T07:31:45;94404.78;;;14.13;83.26
11676;BME280;5894;42.768;23.404;2023-04-01T07:34:19;94387.16;;;14.20;86.77
11676;BME280;5894;42.768;23.404;2023-04-01T07:36:53;94385.44;;;14.31;87.33
11676;BME280;5894;42.768;23.404;2023-04-01T07:39:31;94391.56;;;14.36;86.84
11676;BME280;5894;42.768;23.404;2023-04-01T07:42:29;94386.13;;;14.48;84.84
11676;BME280;5894;42.768;23.404;2023-04-01T07:45:05;94377.16;;;14.56;83.90
11676;BME280;5894;42.768;23.404;2023-04-01T07:47:47;94393.66;;;14.68;83.31
11676;BME280;5894;42.768;23.404;2023-04-01T07:50:26;94379.69;;;14.72;81.05
11676;BME280;5894;42.768;23.404;2023-04-01T07:53:02;94384.66;;;14.73;83.05
11676;BME280;5894;42.768;23.404;2023-04-01T07:55:40;94370.00;;;14.83;79.61
11676;BME280;5894;42.768;23.404;2023-04-01T07:58:14;94369.66;;;14.84;81.50
11676;BME280;5894;42.768;23.404;2023-04-01T08:00:50;94379.50;;;14.84;81.00
11676;BME280;5894;42.768;23.404;2023-04-01T08:03:35;94385.22;;;14.86;81.06
11676;BME280;5894;42.768;23.404;2023-04-01T08:06:13;94354.56;;;14.65;81.44
11676;BME280;5894;42.768;23.404;2023-04-01T08:08:49;94373.19;;;14.92;81.26
11676;BME280;5894;42.768;23.404;2023-04-01T08:12:02;94352.03;;;14.99;80.05
11676;BME280;5894;42.768;23.404;2023-04-01T08:14:58;94365.06;;;15.07;81.61
11676;BME280;5894;42.768;23.404;2023-04-01T08:17:32;94362.50;;;15.15;81.80
11676;BME280;5894;42.768;23.404;2023-04-01T08:20:18;94345.81;;;15.14;82.10
11676;BME280;5894;42.768;23.404;2023-04-01T08:22:50;94331.72;;;15.10;82.58
11676;BME280;5894;42.768;23.404;2023-04-01T08:25:27;94345.81;;;15.14;81.87
11676;BME280;5894;42.768;23.404;2023-04-01T08:28:03;94335.56;;;15.16;80.37
11676;BME280;5894;42.768;23.404;2023-04-01T08:30:39;94314.31;;;15.13;79.95
11676;BME280;5894;42.768;23.404;2023-04-01T08:33:13;94313.63;;;15.19;78.10
11676;BME280;5894;42.768;23.404;2023-04-01T08:35:46;94278.84;;;14.98;77.23
11676;BME280;5894;42.768;23.404;2023-04-01T08:38:19;94300.84;;;15.28;76.76
11676;BME280;5894;42.768;23.404;2023-04-01T08:41:05;94287.59;;;15.32;80.57
11676;BME280;5894;42.768;23.404;2023-04-01T08:47:34;94283.81;;;15.63;76.91
11676;BME280;5894;42.768;23.404;2023-04-01T08:50:36;94274.84;;;15.78;76.10
11676;BME280;5894;42.768;23.404;2023-04-01T08:53:21;94273.06;;;15.89;78.79
11676;BME280;5894;42.768;23.404;2023-04-01T08:56:03;94279.69;;;16.06;76.54
11676;BME280;5894;42.768;23.404;2023-04-01T08:58:47;94273.28;;;16.14;71.39
11676;BME280;5894;42.768;23.404;2023-04-01T09:01:43;94264.69;;;16.31;68.13
11676;BME280;5894;42.768;23.404;2023-04-01T09:04:49;94239.84;;;16.13;66.30
11676;BME280;5894;42.768;23.404;2023-04-01T09:07:32;94263.06;;;16.20;70.03
11676;BME280;5894;42.768;23.404;2023-04-01T09:10:24;94263.59;;;16.36;69.66
11676;BME280;5894;42.768;23.404;2023-04-01T09:13:24;94289.91;;;16.51;71.82
11676;BME280;5894;42.768;23.404;2023-04-01T09:16:11;94254.66;;;16.62;69.58
11676;BME280;5894;42.768;23.404;2023-04-01T09:18:53;94249.00;;;16.67;65.87
11676;BME280;5894;42.768;23.404;2023-04-01T09:21:49;94266.19;;;16.80;65.76
11676;BME280;5894;42.768;23.404;2023-04-01T09:24:29;94254.09;;;16.90;63.75
11676;BME280;5894;42.768;23.404;2023-04-01T09:27:05;94263.59;;;16.94;61.69
11676;BME280;5894;42.768;23.404;2023-04-01T09:32:57;94172.41;;;16.39;64.00
11676;BME280;5894;42.768;23.404;2023-04-01T09:35:39;94258.69;;;16.96;65.52
11676;BME280;5894;42.768;23.404;2023-04-01T09:38:20;94199.25;;;16.78;61.74
11676;BME280;5894;42.768;23.404;2023-04-01T09:40:54;94252.59;;;17.03;62.14
11676;BME280;5894;42.768;23.404;2023-04-01T09:43:59;94226.31;;;16.94;61.76
11676;BME280;5894;42.768;23.404;2023-04-01T09:46:35;94209.19;;;16.88;65.63
11676;BME280;5894;42.768;23.404;2023-04-01T09:49:32;94213.81;;;17.02;65.71
11676;BME280;5894;42.768;23.404;2023-04-01T09:52:13;94210.03;;;17.06;61.18
11676;BME280;5894;42.768;23.404;2023-04-01T09:54:58;94208.91;;;17.14;59.99
11676;BME280;5894;42.768;23.404;2023-04-01T09:57:45;94196.00;;;17.23;58.95
11676;BME280;5894;42.768;23.404;2023-04-01T10:01:02;94183.09;;;17.33;61.08
11676;BME280;5894;42.768;23.404;2023-04-01T10:04:14;94181.19;;;17.37;62.13
11676;BME280;5894;42.768;23.404;2023-04-01T10:13:15;94172.53;;;17.72;56.45
11676;BME280;5894;42.768;23.404;2023-04-01T10:16:14;94170.63;;;17.72;53.67
11676;BME280;5894;42.768;23.404;2023-04-01T10:19:11;94155.00;;;17.71;51.29
11676;BME280;5894;42.768;23.404;2023-04-01T10:21:59;94163.78;;;17.85;50.77
11676;BME280;5894;42.768;23.404;2023-04-01T10:24:52;94146.25;;;17.98;49.25
11676;BME280;5894;42.768;23.404;2023-04-01T10:27:40;94154.63;;;18.11;49.05
11676;BME280;5894;42.768;23.404;2023-04-01T10:31:06;94143.94;;;18.25;49.35
11676;BME280;5894;42.768;23.404;2023-04-01T10:34:10;94143.53;;;18.38;50.64
11676;BME280;5894;42.768;23.404;2023-04-01T10:36:53;94135.56;;;18.16;50.51
11676;BME280;5894;42.768;23.404;2023-04-01T10:46:37;94145.50;;;18.16;50.30
11676;BME280;5894;42.768;23.404;2023-04-01T10:52:48;94074.25;;;17.77;50.97
11676;BME280;5894;42.768;23.404;2023-04-01T10:55:54;94093.28;;;17.86;51.37
11676;BME280;5894;42.768;23.404;2023-04-01T11:02:42;94108.16;;;18.05;51.71
11676;BME280;5894;42.768;23.404;2023-04-01T11:06:03;94106.59;;;18.08;54.01
11676;BME280;5894;42.768;23.404;2023-04-01T11:18:03;94086.44;;;17.89;55.45
11676;BME280;5894;42.768;23.404;2023-04-01T11:20:56;94076.53;;;17.57;56.54
11676;BME280;5894;42.768;23.404;2023-04-01T11:26:25;94085.69;;;17.67;57.73
11676;BME280;5894;42.768;23.404;2023-04-01T11:32:28;94091.75;;;17.60;57.19
11676;BME280;5894;42.768;23.404;2023-04-01T11:35:18;94113.88;;;17.72;57.11
11676;BME280;5894;42.768;23.404;2023-04-01T11:37:54;94127.59;;;17.81;56.49
11676;BME280;5894;42.768;23.404;2023-04-01T11:40:58;94150.47;;;17.85;56.21
11676;BME280;5894;42.768;23.404;2023-04-01T11:43:47;94186.63;;;17.76;54.37
11676;BME280;5894;42.768;23.404;2023-04-01T11:47:03;94258.53;;;17.51;54.41
11676;BME280;5894;42.768;23.404;2023-04-01T11:49:45;94267.91;;;17.13;63.02
11676;BME280;5894;42.768;23.404;2023-04-01T11:53:02;94298.66;;;16.48;83.38
11676;BME280;5894;42.768;23.404;2023-04-01T11:55:41;94324.25;;;15.83;100.00
11676;BME280;5894;42.768;23.404;2023-04-01T11:58:29;94344.31;;;15.17;100.00
11676;BME280;5894;42.768;23.404;2023-04-01T12:01:11;94352.00;;;14.46;100.00
11676;BME280;5894;42.768;23.404;2023-04-01T12:03:53;94361.66;;;13.93;100.00
11676;BME280;5894;42.768;23.404;2023-04-01T12:06:28;94377.56;;;13.74;100.00
11676;BME280;5894;42.768;23.404;2023-04-01T12:09:04;94369.41;;;13.44;100.00
11676;BME280;5894;42.768;23.404;2023-04-01T12:11:39;94370.06;;;13.21;100.00
11676;BME280;5894;42.768;23.404;2023-04-01T12:14:13;94327.72;;;12.86;100.00
11676;BME280;5894;42.768;23.404;2023-04-01T12:16:54;94353.28;;;13.14;100.00
11676;BME280;5894;42.768;23.404;2023-04-01T12:19:28;94297.63;;;12.75;100.00
11676;BME280;5894;42.768;23.404;2023-04-01T12:22:10;94331.38;;;12.98;100.00
11676;BME280;5894;42.768;23.404;2023-04-01T12:24:46;94343.97;;;13.04;100.00
11676;BME280;5894;42.768;23.404;2023-04-01T12:27:28;94356.00;;;13.02;100.00
11676;BME280;5894;42.768;23.404;2023-04-01T12:33:10;94359.94;;;13.08;100.00
11676;BME280;5894;42.768;23.404;2023-04-01T12:35:51;94353.88;;;13.07;100.00
11676;BME280;5894;42.768;23.404;2023-04-01T12:38:30;94360.69;;;13.24;100.00
11676;BME280;5894;42.768;23.404;2023-04-01T12:41:08;94352.19;;;13.34;100.00
11676;BME280;5894;42.768;23.404;2023-04-01T12:44:03;94345.88;;;13.39;100.00
11676;BME280;5894;42.768;23.404;2023-04-01T12:46:47;94354.06;;;13.53;100.00
11676;BME280;5894;42.768;23.404;2023-04-01T12:49:31;94356.38;;;13.54;100.00
11676;BME280;5894;42.768;23.404;2023-04-01T12:52:04;94354.72;;;13.66;100.00
11676;BME280;5894;42.768;23.404;2023-04-01T12:55:07;94358.59;;;13.72;100.00
11676;BME280;5894;42.768;23.404;2023-04-01T13:01:10;94314.41;;;13.76;100.00
11676;BME280;5894;42.768;23.404;2023-04-01T13:04:00;94313.97;;;13.74;100.00
11676;BME280;5894;42.768;23.404;2023-04-01T13:06:43;94313.84;;;13.67;100.00
11676;BME280;5894;42.768;23.404;2023-04-01T13:09:23;94324.09;;;13.68;100.00
11676;BME280;5894;42.768;23.404;2023-04-01T13:12:10;94315.75;;;13.66;100.00
11676;BME280;5894;42.768;23.404;2023-04-01T13:15:12;94309.75;;;13.69;100.00
11676;BME280;5894;42.768;23.404;2023-04-01T13:17:50;94315.59;;;13.78;100.00
11676;BME280;5894;42.768;23.404;2023-04-01T13:20:32;94309.66;;;13.85;100.00
11676;BME280;5894;42.768;23.404;2023-04-01T13:23:10;94275.00;;;13.74;100.00
11676;BME280;5894;42.768;23.404;2023-04-01T13:25:45;94286.75;;;13.96;100.00
11676;BME280;5894;42.768;23.404;2023-04-01T13:28:18;94272.72;;;13.95;100.00
11676;BME280;5894;42.768;23.404;2023-04-01T13:30:49;94270.59;;;14.05;100.00
11676;BME280;5894;42.768;23.404;2023-04-01T13:33:31;94232.03;;;13.84;100.00
11676;BME280;5894;42.768;23.404;2023-04-01T13:36:10;94242.69;;;14.11;100.00
11676;BME280;5894;42.768;23.404;2023-04-01T13:41:39;94252.00;;;14.01;100.00
11676;BME280;5894;42.768;23.404;2023-04-01T13:44:15;94232.72;;;13.81;100.00
11676;BME280;5894;42.768;23.404;2023-04-01T13:46:57;94234.75;;;13.88;100.00
11676;BME280;5894;42.768;23.404;2023-04-01T13:52:46;94226.03;;;13.65;100.00
11676;BME280;5894;42.768;23.404;2023-04-01T13:55:28;94230.63;;;13.68;100.00
11676;BME280;5894;42.768;23.404;2023-04-01T14:01:13;94229.50;;;13.69;100.00
11676;BME280;5894;42.768;23.404;2023-04-01T14:04:08;94233.97;;;13.65;100.00
11676;BME280;5894;42.768;23.404;2023-04-01T14:06:49;94219.50;;;13.58;100.00
11676;BME280;5894;42.768;23.404;2023-04-01T14:09:43;94219.31;;;13.71;100.00
11676;BME280;5894;42.768;23.404;2023-04-01T14:12:26;94198.00;;;13.64;100.00
11676;BME280;5894;42.768;23.404;2023-04-01T14:15:05;94207.84;;;13.63;100.00
11676;BME280;5894;42.768;23.404;2023-04-01T14:17:44;94204.19;;;13.71;100.00
11676;BME280;5894;42.768;23.404;2023-04-01T14:20:35;94196.78;;;13.80;100.00
11676;BME280;5894;42.768;23.404;2023-04-01T14:23:17;94191.41;;;13.77;100.00
11676;BME280;5894;42.768;23.404;2023-04-01T14:26:06;94189.22;;;13.82;100.00
11676;BME280;5894;42.768;23.404;2023-04-01T14:28:43;94181.50;;;13.96;100.00
11676;BME280;5894;42.768;23.404;2023-04-01T14:31:26;94167.59;;;14.03;100.00
11676;BME280;5894;42.768;23.404;2023-04-01T14:34:03;94125.09;;;13.70;100.00
11676;BME280;5894;42.768;23.404;2023-04-01T14:36:45;94156.53;;;13.98;100.00
11676;BME280;5894;42.768;23.404;2023-04-01T14:39:22;94147.47;;;13.99;100.00
11676;BME280;5894;42.768;23.404;2023-04-01T14:42:05;94079.88;;;13.59;100.00
11676;BME280;5894;42.768;23.404;2023-04-01T14:45:06;94156.75;;;14.12;100.00
11676;BME280;5894;42.768;23.404;2023-04-01T14:47:46;94159.84;;;14.17;100.00
11676;BME280;5894;42.768;23.404;2023-04-01T14:50:17;94157.91;;;14.14;100.00
11676;BME280;5894;42.768;23.404;2023-04-01T14:52:49;94089.97;;;13.76;100.00
11676;BME280;5894;42.768;23.404;2023-04-01T14:55:28;94156.50;;;14.20;100.00
11676;BME280;5894;42.768;23.404;2023-04-01T14:58:09;94164.19;;;14.29;100.00